createdAt,value
2023-03-13T00:04:58.248Z,13.80
2023-03-13T00:10:07.455Z,14.10
2023-03-13T00:15:14.756Z,12.00
2023-03-13T00:20:22.353Z,12.00
2023-03-13T00:25:29.158Z,8.20
2023-03-13T00:30:39.045Z,8.10
2023-03-13T00:35:46.009Z,8.00
2023-03-13T00:40:59.430Z,8.40
2023-03-13T00:46:08.043Z,7.60
2023-03-13T00:51:17.457Z,6.40
2023-03-13T00:56:24.501Z,6.30
2023-03-13T01:01:33.671Z,8.20
2023-03-13T01:06:45.744Z,7.20
2023-03-13T01:11:53.056Z,6.90
2023-03-13T01:17:00.044Z,5.50
2023-03-13T01:22:07.021Z,5.20
2023-03-13T01:27:13.956Z,5.70
2023-03-13T01:32:23.435Z,5.40
2023-03-13T01:37:30.585Z,5.60
2023-03-13T01:42:52.163Z,5.10
2023-03-13T01:47:59.021Z,5.40
2023-03-13T01:53:22.442Z,5.10
2023-03-13T01:58:31.891Z,5.20
2023-03-13T02:03:39.987Z,5.20
2023-03-13T02:08:52.748Z,5.40
2023-03-13T02:14:01.724Z,4.80
2023-03-13T02:19:18.412Z,5.10
2023-03-13T02:24:33.464Z,5.70
2023-03-13T02:29:41.734Z,6.10
2023-03-13T02:34:53.919Z,6.70
2023-03-13T02:40:04.965Z,9.20
2023-03-13T02:45:14.797Z,12.10
2023-03-13T02:50:22.669Z,12.60
2023-03-13T02:55:35.177Z,10.60
2023-03-13T03:00:43.274Z,10.60
2023-03-13T03:05:50.428Z,11.00
2023-03-13T03:10:57.503Z,11.30
2023-03-13T03:16:10.755Z,11.80
2023-03-13T03:21:17.760Z,12.20
2023-03-13T03:26:24.740Z,11.30
2023-03-13T03:31:33.138Z,12.20
2023-03-13T03:36:40.243Z,12.90
2023-03-13T03:41:50.073Z,12.70
2023-03-13T03:46:57.222Z,14.10
2023-03-13T03:52:05.296Z,13.30
2023-03-13T03:57:15.890Z,13.80
2023-03-13T04:02:24.208Z,13.00
2023-03-13T04:07:31.349Z,14.10
2023-03-13T04:12:41.158Z,16.80
2023-03-13T04:17:48.457Z,18.90
2023-03-13T04:22:56.766Z,19.50
2023-03-13T04:28:04.053Z,19.20
2023-03-13T04:33:17.977Z,19.80
2023-03-13T04:38:45.154Z,18.40
2023-03-13T04:44:12.939Z,18.90
2023-03-13T04:49:51.926Z,18.80
2023-03-13T04:55:21.736Z,18.20
2023-03-13T05:00:44.478Z,18.80
2023-03-13T05:06:02.211Z,19.90
2023-03-13T05:11:38.187Z,21.80
2023-03-13T05:17:10.964Z,19.50
2023-03-13T05:22:34.808Z,20.80
2023-03-13T05:28:05.028Z,18.40
2023-03-13T05:33:30.286Z,20.00
2023-03-13T05:38:51.023Z,16.20
2023-03-13T05:44:18.783Z,16.10
2023-03-13T05:49:44.790Z,18.70
2023-03-13T05:55:13.111Z,17.60
2023-03-13T06:00:39.863Z,17.80
2023-03-13T06:06:19.033Z,16.20
2023-03-13T06:11:35.281Z,15.70
2023-03-13T06:16:44.530Z,16.10
2023-03-13T06:21:55.093Z,16.30
2023-03-13T06:27:02.153Z,16.00
2023-03-13T06:32:10.995Z,16.60
2023-03-13T06:37:18.019Z,16.40
2023-03-13T06:42:25.011Z,15.40
2023-03-13T06:47:33.512Z,16.60
2023-03-13T06:52:44.339Z,16.60
2023-03-13T06:57:54.047Z,18.40
2023-03-13T07:03:00.980Z,17.60
2023-03-13T07:08:08.338Z,15.90
2023-03-13T07:13:15.426Z,15.60
2023-03-13T07:18:22.574Z,14.00
2023-03-13T07:23:30.797Z,12.50
2023-03-13T07:28:38.163Z,12.80
2023-03-13T07:33:46.089Z,11.80
2023-03-13T07:38:53.842Z,10.60
2023-03-13T07:44:00.817Z,11.20
2023-03-13T07:49:08.697Z,9.90
2023-03-13T07:54:15.663Z,8.90
2023-03-13T07:59:22.588Z,8.10
2023-03-13T08:04:29.626Z,9.80
2023-03-13T08:09:36.956Z,9.10
2023-03-13T08:14:43.838Z,7.60
2023-03-13T08:19:51.358Z,7.50
2023-03-13T08:25:01.968Z,8.50
2023-03-13T08:30:22.220Z,9.30
2023-03-13T08:35:41.490Z,8.70
2023-03-13T08:40:48.371Z,8.00
2023-03-13T08:46:03.688Z,7.80
2023-03-13T08:51:12.541Z,6.40
2023-03-13T08:56:24.563Z,6.30
2023-03-13T09:01:33.114Z,6.90
2023-03-13T09:06:40.954Z,8.00
2023-03-13T09:11:47.881Z,7.00
2023-03-13T09:16:54.766Z,7.30
2023-03-13T09:22:02.196Z,6.10
2023-03-13T09:27:09.105Z,5.60
2023-03-13T09:32:17.134Z,5.70
2023-03-13T09:37:24.318Z,5.30
2023-03-13T09:42:44.228Z,4.00
2023-03-13T09:47:56.212Z,5.60
2023-03-13T09:53:14.186Z,5.70
2023-03-13T09:58:26.532Z,5.70
2023-03-13T10:03:40.596Z,6.10
2023-03-13T10:08:47.582Z,5.60
2023-03-13T10:14:00.801Z,5.10
2023-03-13T10:19:15.806Z,5.30
2023-03-13T10:24:34.288Z,4.10
2023-03-13T10:29:41.226Z,5.10
2023-03-13T10:34:57.396Z,7.20
2023-03-13T10:40:22.880Z,4.90
2023-03-13T10:45:32.729Z,6.30
2023-03-13T10:50:42.914Z,6.20
2023-03-13T10:55:50.711Z,6.70
2023-03-13T11:01:17.020Z,9.20
2023-03-13T11:06:30.389Z,10.30
2023-03-13T11:11:49.641Z,7.30
2023-03-13T11:17:00.698Z,6.60
2023-03-13T11:22:22.062Z,6.00
2023-03-13T11:27:37.516Z,8.30
2023-03-13T11:32:52.435Z,6.40
2023-03-13T11:38:01.145Z,30.70
2023-03-13T11:43:28.675Z,6.70
2023-03-13T11:48:55.141Z,26.40
2023-03-13T11:54:34.518Z,27.10
2023-03-13T11:59:47.449Z,19.70
2023-03-13T12:04:59.587Z,18.30
2023-03-13T12:10:11.704Z,11.50
2023-03-13T12:15:29.270Z,26.00
2023-03-13T12:20:45.615Z,15.90
2023-03-13T12:25:57.586Z,11.40
2023-03-13T12:31:15.864Z,12.30
2023-03-13T12:36:29.489Z,11.50
2023-03-13T12:41:42.040Z,6.80
2023-03-13T12:46:57.110Z,3.90
2023-03-13T12:52:26.394Z,4.60
2023-03-13T12:57:59.494Z,4.00
2023-03-13T13:03:17.104Z,3.90
2023-03-13T13:08:33.022Z,3.10
2023-03-13T13:13:44.197Z,4.00
2023-03-13T13:18:51.399Z,4.20
2023-03-13T13:24:36.164Z,2.90
2023-03-13T13:30:00.379Z,3.50
2023-03-13T13:35:19.816Z,3.50
2023-03-13T13:40:32.698Z,2.40
2023-03-13T13:45:40.601Z,5.10
2023-03-13T13:51:24.049Z,3.40
2023-03-13T13:56:42.368Z,3.30
2023-03-13T14:01:50.925Z,3.50
2023-03-13T14:07:02.451Z,4.50
2023-03-13T14:17:28.400Z,4.30
2023-03-13T14:22:48.657Z,4.60
2023-03-13T14:27:58.005Z,4.60
2023-03-13T14:33:05.062Z,9.30
2023-03-13T14:38:19.925Z,6.10
2023-03-13T14:43:36.230Z,7.90
2023-03-13T14:48:43.352Z,4.50
2023-03-13T14:54:01.969Z,5.10
2023-03-13T14:59:19.510Z,6.80
2023-03-13T15:05:06.580Z,4.80
2023-03-13T15:10:26.174Z,5.30
2023-03-13T15:15:33.169Z,4.20
2023-03-13T15:20:40.163Z,4.30
2023-03-13T15:25:49.789Z,4.10
2023-03-13T15:30:56.652Z,3.80
2023-03-13T15:36:03.474Z,5.20
2023-03-13T15:41:10.602Z,11.70
2023-03-13T15:46:17.535Z,7.50
2023-03-13T15:51:24.710Z,5.20
2023-03-13T15:56:36.305Z,8.80
2023-03-13T16:01:43.918Z,6.60
2023-03-13T16:06:51.023Z,8.20
2023-03-13T16:11:59.029Z,8.80
2023-03-13T16:17:13.321Z,21.40
2023-03-13T16:22:20.413Z,14.60
2023-03-13T16:27:29.270Z,11.80
2023-03-13T16:32:36.295Z,12.20
2023-03-13T16:37:43.378Z,8.80
2023-03-13T16:42:50.333Z,5.70
2023-03-13T16:47:57.297Z,10.70
2023-03-13T16:53:04.588Z,6.80
2023-03-13T16:58:13.956Z,8.10
2023-03-13T17:03:45.490Z,11.60
2023-03-13T17:09:01.800Z,13.20
2023-03-13T17:14:10.540Z,61.20
2023-03-13T17:19:18.473Z,27.80
2023-03-13T17:24:25.348Z,30.50
2023-03-13T17:29:32.304Z,32.00
2023-03-13T17:34:39.413Z,21.90
2023-03-13T17:39:46.906Z,21.80
2023-03-13T17:44:53.850Z,21.60
2023-03-13T17:50:00.813Z,17.30
2023-03-13T17:55:10.010Z,35.20
2023-03-13T18:00:24.307Z,31.80
2023-03-13T18:05:31.521Z,21.90
2023-03-13T18:10:38.517Z,22.40
2023-03-13T18:15:45.711Z,22.70
2023-03-13T18:20:52.806Z,17.60
2023-03-13T18:25:59.885Z,28.70
2023-03-13T18:31:07.508Z,12.30
2023-03-13T18:36:21.920Z,15.20
2023-03-13T18:41:29.007Z,10.30
2023-03-13T18:46:35.887Z,10.60
2023-03-13T18:51:42.901Z,14.00
2023-03-13T18:56:49.810Z,10.50
2023-03-13T19:01:56.725Z,11.90
2023-03-13T19:07:03.750Z,8.70
2023-03-13T19:12:11.351Z,8.50
2023-03-13T19:17:24.251Z,7.40
2023-03-13T19:22:31.186Z,8.60
2023-03-13T19:27:39.717Z,7.30
2023-03-13T19:32:47.032Z,14.00
2023-03-13T19:37:57.021Z,9.90
2023-03-13T19:43:04.053Z,9.80
2023-03-13T19:48:11.485Z,23.60
2023-03-13T19:53:18.312Z,16.20
2023-03-13T19:58:25.572Z,14.30
2023-03-13T20:03:32.824Z,11.80
2023-03-13T20:08:39.675Z,15.10
2023-03-13T20:13:46.898Z,12.40
2023-03-13T20:18:55.725Z,10.50
2023-03-13T20:24:03.495Z,12.60
2023-03-13T20:29:10.537Z,8.30
2023-03-13T20:34:17.428Z,8.40
2023-03-13T20:39:24.914Z,9.00
2023-03-13T20:44:32.171Z,7.20
2023-03-13T20:49:41.120Z,4.90
2023-03-13T20:54:48.259Z,6.80
2023-03-13T20:59:55.130Z,6.90
2023-03-13T21:05:02.160Z,5.40
2023-03-13T21:10:11.300Z,7.00
2023-03-13T21:15:18.221Z,5.50
2023-03-13T21:20:25.770Z,6.10
2023-03-13T21:25:32.769Z,6.10
2023-03-13T21:30:39.665Z,6.50
2023-03-13T21:35:48.359Z,6.20
2023-03-13T21:40:55.657Z,5.40
2023-03-13T21:46:04.058Z,5.70
2023-03-13T21:51:12.167Z,6.80
2023-03-13T21:56:19.276Z,6.20
2023-03-13T22:01:26.390Z,5.70
2023-03-13T22:06:33.443Z,5.70
2023-03-13T22:11:40.337Z,6.10
2023-03-13T22:16:48.188Z,8.10
2023-03-13T22:21:55.327Z,15.30
2023-03-13T22:27:02.266Z,9.60
2023-03-13T22:32:09.468Z,7.80
2023-03-13T22:37:17.031Z,8.10
2023-03-13T22:42:24.853Z,9.20
2023-03-13T22:47:32.628Z,9.00
2023-03-13T22:52:39.698Z,9.90
2023-03-13T22:57:46.737Z,7.90
2023-03-13T23:02:54.823Z,9.20
2023-03-13T23:08:01.743Z,6.90
2023-03-13T23:13:08.626Z,5.80
2023-03-13T23:18:15.421Z,5.50
2023-03-13T23:23:22.503Z,7.60
2023-03-13T23:28:29.331Z,8.10
2023-03-13T23:33:36.214Z,11.70
2023-03-13T23:38:43.400Z,11.30
2023-03-13T23:43:50.282Z,14.90
2023-03-13T23:48:58.002Z,12.70
2023-03-13T23:54:05.373Z,11.20
2023-03-13T23:59:12.440Z,9.70
